createdAt,value
2019-03-19T00:00:48.045Z,0.00
2019-03-19T00:01:48.041Z,0.00
2019-03-19T00:02:48.069Z,0.00
2019-03-19T00:03:48.018Z,0.00
2019-03-19T00:04:48.004Z,0.00
2019-03-19T00:05:47.992Z,0.00
2019-03-19T00:06:47.983Z,0.00
2019-03-19T00:07:47.971Z,0.00
2019-03-19T00:08:47.963Z,0.00
2019-03-19T00:09:47.949Z,0.00
2019-03-19T00:10:47.938Z,0.00
2019-03-19T00:11:47.931Z,0.00
2019-03-19T00:12:47.923Z,0.00
2019-03-19T00:13:47.905Z,0.00
2019-03-19T00:14:47.899Z,0.00
2019-03-19T00:15:47.882Z,0.00
2019-03-19T00:16:47.887Z,0.00
2019-03-19T00:17:47.868Z,0.00
2019-03-19T00:18:47.854Z,0.00
2019-03-19T00:19:47.850Z,0.00
2019-03-19T00:20:47.834Z,0.00
2019-03-19T00:21:47.834Z,0.00
2019-03-19T00:22:47.819Z,0.00
2019-03-19T00:23:47.796Z,0.00
2019-03-19T00:24:47.790Z,0.00
2019-03-19T00:25:47.776Z,0.00
2019-03-19T00:26:47.774Z,0.00
2019-03-19T00:27:47.755Z,0.00
2019-03-19T00:28:47.751Z,0.00
2019-03-19T00:29:47.770Z,0.00
2019-03-19T00:30:47.745Z,0.00
2019-03-19T00:31:47.728Z,0.00
2019-03-19T00:32:47.703Z,0.00
2019-03-19T00:33:47.691Z,0.00
2019-03-19T00:34:47.682Z,0.00
2019-03-19T00:35:47.669Z,0.00
2019-03-19T00:36:47.669Z,0.00
2019-03-19T00:37:47.650Z,0.00
2019-03-19T00:38:47.646Z,0.00
2019-03-19T00:39:47.635Z,0.00
2019-03-19T00:40:47.656Z,0.00
2019-03-19T00:41:47.620Z,0.00
2019-03-19T00:42:47.633Z,0.00
2019-03-19T00:43:47.584Z,0.00
2019-03-19T00:44:47.576Z,0.00
2019-03-19T00:45:47.568Z,0.00
2019-03-19T00:46:47.562Z,0.00
2019-03-19T00:47:47.558Z,0.00
2019-03-19T00:48:47.541Z,0.00
2019-03-19T00:49:47.525Z,0.00
2019-03-19T00:50:47.514Z,0.00
2019-03-19T00:51:47.519Z,0.00
2019-03-19T00:52:47.494Z,0.00
2019-03-19T00:53:47.479Z,0.00
2019-03-19T00:54:47.477Z,0.00
2019-03-19T00:55:47.475Z,0.00
2019-03-19T00:56:47.461Z,0.00
2019-03-19T00:57:47.451Z,0.00
2019-03-19T00:58:47.439Z,0.00
2019-03-19T00:59:47.417Z,0.00
2019-03-19T01:00:47.402Z,0.00
2019-03-19T01:01:47.434Z,0.00
2019-03-19T01:02:47.383Z,0.00
2019-03-19T01:03:47.384Z,0.00
2019-03-19T01:04:47.379Z,0.00
2019-03-19T01:05:47.352Z,0.00
2019-03-19T01:06:47.338Z,0.00
2019-03-19T01:07:47.349Z,0.00
2019-03-19T01:08:47.321Z,0.00
2019-03-19T01:09:47.310Z,0.00
2019-03-19T01:10:47.294Z,0.00
2019-03-19T01:11:47.295Z,0.00
2019-03-19T01:12:47.289Z,0.00
2019-03-19T01:13:47.273Z,0.00
2019-03-19T01:14:47.251Z,0.00
2019-03-19T01:15:47.243Z,0.00
2019-03-19T01:16:47.234Z,0.00
2019-03-19T01:17:47.229Z,0.00
2019-03-19T01:18:47.219Z,0.00
2019-03-19T01:19:47.201Z,0.00
2019-03-19T01:20:47.191Z,0.00
2019-03-19T01:21:47.189Z,0.00
2019-03-19T01:22:47.188Z,0.00
2019-03-19T01:23:47.170Z,0.00
2019-03-19T01:24:47.144Z,0.00
2019-03-19T01:25:55.183Z,0.00
2019-03-19T01:26:48.148Z,0.00
2019-03-19T01:27:47.120Z,0.00
2019-03-19T01:28:47.109Z,0.00
2019-03-19T01:29:47.094Z,0.00
2019-03-19T01:30:47.088Z,0.00
2019-03-19T01:31:47.075Z,0.00
2019-03-19T01:32:47.074Z,0.00
2019-03-19T01:33:47.048Z,0.00
2019-03-19T01:34:47.038Z,0.00
2019-03-19T01:35:47.028Z,0.00
2019-03-19T01:36:47.021Z,0.00
2019-03-19T01:37:47.008Z,0.00
2019-03-19T01:38:47.010Z,0.00
2019-03-19T01:39:47.078Z,0.00
2019-03-19T01:40:46.995Z,0.00
2019-03-19T01:41:46.982Z,0.00
2019-03-19T01:42:46.962Z,0.00
2019-03-19T01:43:46.950Z,0.00
2019-03-19T01:44:46.935Z,0.00
2019-03-19T01:45:46.922Z,0.00
2019-03-19T01:46:46.917Z,0.00
2019-03-19T01:47:47.008Z,0.00
2019-03-19T01:48:46.893Z,0.00
2019-03-19T01:49:46.881Z,0.00
2019-03-19T01:50:46.872Z,0.00
2019-03-19T01:51:46.863Z,0.00
2019-03-19T01:52:46.854Z,0.00
2019-03-19T01:53:46.846Z,0.00
2019-03-19T01:54:46.861Z,0.00
2019-03-19T01:55:46.864Z,0.00
2019-03-19T01:56:46.885Z,0.00
2019-03-19T01:57:46.840Z,0.00
2019-03-19T01:58:46.795Z,0.00
2019-03-19T01:59:46.781Z,0.00
2019-03-19T02:00:46.781Z,0.00
2019-03-19T02:01:46.884Z,0.00
2019-03-19T02:02:46.746Z,0.00
2019-03-19T02:03:46.737Z,0.00
2019-03-19T02:04:46.723Z,0.00
2019-03-19T02:05:46.709Z,0.00
2019-03-19T02:06:46.702Z,0.00
2019-03-19T02:07:46.702Z,0.00
2019-03-19T02:08:46.702Z,0.00
2019-03-19T02:09:46.675Z,0.00
2019-03-19T02:10:46.659Z,0.00
2019-03-19T02:11:46.650Z,0.00
2019-03-19T02:12:46.637Z,0.00
2019-03-19T02:13:46.625Z,0.00
2019-03-19T02:14:46.614Z,0.00
2019-03-19T02:15:46.629Z,0.00
2019-03-19T02:16:46.607Z,0.00
2019-03-19T02:17:46.584Z,0.00
2019-03-19T02:18:46.570Z,0.00
2019-03-19T02:19:46.561Z,0.00
2019-03-19T02:20:46.551Z,0.00
2019-03-19T02:21:46.550Z,0.00
2019-03-19T02:22:46.583Z,0.00
2019-03-19T02:23:46.587Z,0.00
2019-03-19T02:24:46.513Z,0.00
2019-03-19T02:25:46.493Z,0.00
2019-03-19T02:26:46.505Z,0.00
2019-03-19T02:27:46.514Z,0.00
2019-03-19T02:28:46.468Z,0.00
2019-03-19T02:29:46.452Z,0.00
2019-03-19T02:30:46.444Z,0.00
2019-03-19T02:31:46.434Z,0.00
2019-03-19T02:32:46.432Z,0.00
2019-03-19T02:33:46.430Z,0.00
2019-03-19T02:34:46.398Z,0.00
2019-03-19T02:35:46.384Z,0.00
2019-03-19T02:36:46.388Z,0.00
2019-03-19T02:37:46.374Z,0.00
2019-03-19T02:38:46.373Z,0.00
2019-03-19T02:39:46.344Z,0.00
2019-03-19T02:40:46.337Z,0.00
2019-03-19T02:41:46.331Z,0.00
2019-03-19T02:42:46.326Z,0.00
2019-03-19T02:43:46.320Z,0.00
2019-03-19T02:44:46.294Z,0.00
2019-03-19T02:45:46.299Z,0.00
2019-03-19T02:46:46.272Z,0.00
2019-03-19T02:47:46.260Z,0.00
2019-03-19T02:48:46.266Z,0.00
2019-03-19T02:49:46.245Z,0.00
2019-03-19T02:50:46.234Z,0.00
2019-03-19T02:51:46.215Z,0.00
2019-03-19T02:52:46.244Z,0.00
2019-03-19T02:53:46.207Z,0.00
2019-03-19T02:54:46.186Z,0.00
2019-03-19T02:55:46.175Z,0.00
2019-03-19T02:56:46.162Z,0.00
2019-03-19T02:57:46.159Z,0.00
2019-03-19T02:58:46.156Z,0.00
2019-03-19T02:59:46.147Z,0.00
2019-03-19T03:00:46.118Z,0.00
2019-03-19T03:01:46.168Z,0.00
2019-03-19T03:02:46.115Z,0.00
2019-03-19T03:03:46.096Z,0.00
2019-03-19T03:04:46.076Z,0.00
2019-03-19T03:05:46.067Z,0.00
2019-03-19T03:06:46.052Z,0.00
2019-03-19T03:07:46.073Z,0.00
2019-03-19T03:08:46.048Z,0.00
2019-03-19T03:09:46.020Z,0.00
2019-03-19T03:10:46.011Z,0.00
2019-03-19T03:11:46.005Z,0.00
2019-03-19T03:12:46.017Z,0.00
2019-03-19T03:13:45.991Z,0.00
2019-03-19T03:14:46.437Z,0.00
2019-03-19T03:15:45.968Z,0.00
2019-03-19T03:16:45.944Z,0.00
2019-03-19T03:17:45.943Z,0.00
2019-03-19T03:18:45.928Z,0.00
2019-03-19T03:19:45.913Z,0.00
2019-03-19T03:20:45.904Z,0.00
2019-03-19T03:21:45.921Z,0.00
2019-03-19T03:22:45.887Z,0.00
2019-03-19T03:23:45.877Z,0.00
2019-03-19T03:24:45.863Z,0.00
2019-03-19T03:25:45.851Z,0.00
2019-03-19T03:26:48.251Z,0.00
2019-03-19T03:27:45.854Z,0.00
2019-03-19T03:28:45.832Z,0.00
2019-03-19T03:29:45.815Z,0.00
2019-03-19T03:30:45.822Z,0.00
2019-03-19T03:31:45.822Z,0.00
2019-03-19T03:32:45.825Z,0.00
2019-03-19T03:33:45.802Z,0.00
2019-03-19T03:34:45.750Z,0.00
2019-03-19T03:35:45.768Z,0.00
2019-03-19T03:36:45.731Z,0.00
2019-03-19T03:37:45.718Z,0.00
2019-03-19T03:38:45.736Z,0.00
2019-03-19T03:39:45.697Z,0.00
2019-03-19T03:40:45.692Z,0.00
2019-03-19T03:41:45.686Z,0.00
2019-03-19T03:42:45.666Z,0.00
2019-03-19T03:43:45.757Z,0.00
2019-03-19T03:44:45.643Z,0.00
2019-03-19T03:45:45.640Z,0.00
2019-03-19T03:46:45.642Z,0.00
2019-03-19T03:47:45.619Z,0.00
2019-03-19T03:48:45.613Z,0.00
2019-03-19T03:49:45.588Z,0.00
2019-03-19T03:50:45.577Z,0.00
2019-03-19T03:51:45.569Z,0.00
2019-03-19T03:52:45.596Z,0.00
2019-03-19T03:53:45.554Z,0.00
2019-03-19T03:54:45.539Z,0.00
2019-03-19T03:55:45.522Z,0.00
2019-03-19T03:56:45.514Z,0.00
2019-03-19T03:57:45.508Z,0.00
2019-03-19T03:58:59.634Z,0.00
2019-03-19T03:59:46.487Z,0.00
2019-03-19T04:00:45.475Z,0.00
2019-03-19T04:01:45.457Z,0.00
2019-03-19T04:02:45.459Z,0.00
2019-03-19T04:03:45.471Z,0.00
2019-03-19T04:04:45.442Z,0.00
2019-03-19T04:05:45.486Z,0.00
2019-03-19T04:06:45.410Z,0.00
2019-03-19T04:07:45.432Z,0.00
2019-03-19T04:08:45.392Z,0.00
2019-03-19T04:09:45.401Z,0.00
2019-03-19T04:10:45.365Z,0.00
2019-03-19T04:11:45.359Z,0.00
2019-03-19T04:12:45.355Z,0.00
2019-03-19T04:13:45.337Z,0.00
2019-03-19T04:14:46.759Z,0.00
2019-03-19T04:15:45.327Z,0.00
2019-03-19T04:16:45.297Z,0.00
2019-03-19T04:17:45.300Z,0.00
2019-03-19T04:18:45.303Z,0.00
2019-03-19T04:19:45.327Z,0.00
2019-03-19T04:20:45.259Z,0.00
2019-03-19T04:21:45.249Z,0.00
2019-03-19T04:22:45.246Z,0.00
2019-03-19T04:23:45.239Z,0.00
2019-03-19T04:24:45.276Z,0.00
2019-03-19T04:25:45.215Z,0.00
2019-03-19T04:26:45.211Z,0.00
2019-03-19T04:27:45.181Z,0.00
2019-03-19T04:28:45.173Z,0.00
2019-03-19T04:29:45.159Z,0.00
2019-03-19T04:30:45.152Z,0.00
2019-03-19T04:31:45.142Z,0.00
2019-03-19T04:32:45.135Z,0.00
2019-03-19T04:33:45.131Z,0.00
2019-03-19T04:34:45.109Z,0.00
2019-03-19T04:35:45.090Z,0.00
2019-03-19T04:36:45.085Z,0.00
2019-03-19T04:37:45.089Z,0.00
2019-03-19T04:38:45.078Z,0.00
2019-03-19T04:39:45.093Z,0.00
2019-03-19T04:40:45.784Z,0.00
2019-03-19T04:41:45.026Z,0.00
2019-03-19T04:42:45.076Z,0.00
2019-03-19T04:43:45.007Z,0.00
2019-03-19T04:44:44.996Z,0.00
2019-03-19T04:45:44.982Z,0.00
2019-03-19T04:46:44.975Z,0.00
2019-03-19T04:47:44.965Z,0.00
2019-03-19T04:48:44.961Z,0.00
2019-03-19T04:49:44.967Z,0.00
2019-03-19T04:50:44.928Z,0.00
2019-03-19T04:51:44.920Z,0.00
2019-03-19T04:52:44.919Z,0.00
2019-03-19T04:53:44.897Z,0.00
2019-03-19T04:54:44.900Z,4.00
2019-03-19T04:55:44.890Z,4.00
2019-03-19T04:56:44.865Z,0.00
2019-03-19T04:57:44.868Z,4.00
2019-03-19T04:58:44.847Z,4.00
2019-03-19T04:59:44.850Z,4.00
2019-03-19T05:00:44.838Z,4.00
2019-03-19T05:01:44.827Z,8.00
2019-03-19T05:02:44.886Z,8.00
2019-03-19T05:03:44.799Z,8.00
2019-03-19T05:04:44.865Z,12.00
2019-03-19T05:05:44.811Z,16.00
2019-03-19T05:06:44.834Z,16.00
2019-03-19T05:07:44.757Z,24.00
2019-03-19T05:08:44.769Z,28.00
2019-03-19T05:09:44.746Z,28.00
2019-03-19T05:10:44.721Z,36.00
2019-03-19T05:11:44.704Z,40.00
2019-03-19T05:12:44.708Z,48.00
2019-03-19T05:13:44.695Z,52.00
2019-03-19T05:14:44.692Z,60.00
2019-03-19T05:15:44.664Z,68.00
2019-03-19T05:16:44.663Z,72.00
2019-03-19T05:17:44.676Z,80.00
2019-03-19T05:18:44.649Z,88.00
2019-03-19T05:19:44.649Z,96.00
2019-03-19T05:20:44.613Z,108.00
2019-03-19T05:21:44.600Z,116.00
2019-03-19T05:22:44.587Z,132.00
2019-03-19T05:23:44.584Z,144.00
2019-03-19T05:24:44.586Z,152.00
2019-03-19T05:25:44.567Z,168.00
2019-03-19T05:26:44.544Z,180.00
2019-03-19T05:27:44.540Z,192.00
2019-03-19T05:28:44.525Z,212.00
2019-03-19T05:29:44.516Z,224.00
2019-03-19T05:30:44.509Z,236.00
2019-03-19T05:31:44.511Z,252.00
2019-03-19T05:32:44.487Z,260.00
2019-03-19T05:33:44.474Z,280.00
2019-03-19T05:34:44.467Z,296.00
2019-03-19T05:35:44.460Z,308.00
2019-03-19T05:36:45.282Z,332.00
2019-03-19T05:37:44.429Z,356.00
2019-03-19T05:38:44.420Z,380.00
2019-03-19T05:39:44.410Z,412.00
2019-03-19T05:40:44.403Z,432.00
2019-03-19T05:41:44.406Z,464.00
2019-03-19T05:42:44.377Z,492.00
2019-03-19T05:43:44.362Z,536.00
2019-03-19T05:44:44.353Z,568.00
2019-03-19T05:45:44.358Z,600.00
2019-03-19T05:46:44.355Z,636.00
2019-03-19T05:47:44.327Z,660.00
2019-03-19T05:48:44.316Z,688.00
2019-03-19T05:49:44.311Z,712.00
2019-03-19T05:50:44.292Z,724.00
2019-03-19T05:51:44.341Z,740.00
2019-03-19T05:52:44.281Z,768.00
2019-03-19T05:53:44.277Z,812.00
2019-03-19T05:54:44.246Z,852.00
2019-03-19T05:55:44.236Z,884.00
2019-03-19T05:56:44.223Z,892.00
2019-03-19T05:57:49.308Z,912.00
2019-03-19T05:58:45.210Z,940.00
2019-03-19T05:59:44.209Z,972.00
2019-03-19T06:00:44.204Z,1008.00
2019-03-19T06:01:44.202Z,1056.00
2019-03-19T06:02:44.170Z,1060.00
2019-03-19T06:03:44.151Z,1052.00
2019-03-19T06:04:44.145Z,1000.00
2019-03-19T06:05:44.145Z,976.00
2019-03-19T06:06:44.118Z,972.00
2019-03-19T06:07:44.120Z,992.00
2019-03-19T06:08:44.773Z,1020.00
2019-03-19T06:09:44.096Z,1068.00
2019-03-19T06:10:44.115Z,1136.00
2019-03-19T06:11:44.064Z,1180.00
2019-03-19T06:12:44.055Z,1256.00
2019-03-19T06:13:44.041Z,1252.00
2019-03-19T06:14:44.031Z,1292.00
2019-03-19T06:15:44.040Z,1344.00
2019-03-19T06:16:44.020Z,1416.00
2019-03-19T06:17:44.015Z,1484.00
2019-03-19T06:18:44.051Z,1740.00
2019-03-19T06:19:44.002Z,1692.00
2019-03-19T06:20:44.032Z,1808.00
2019-03-19T06:21:43.955Z,1920.00
2019-03-19T06:22:43.946Z,1916.00
2019-03-19T06:23:43.945Z,2008.00
2019-03-19T06:24:43.924Z,2080.00
2019-03-19T06:25:43.929Z,2144.00
2019-03-19T06:26:43.906Z,2204.00
2019-03-19T06:27:43.894Z,2256.00
2019-03-19T06:28:43.880Z,2312.00
2019-03-19T06:29:43.872Z,2368.00
2019-03-19T06:30:43.911Z,2460.00
2019-03-19T06:31:43.850Z,2520.00
2019-03-19T06:32:43.848Z,2540.00
2019-03-19T06:33:43.849Z,2572.00
2019-03-19T06:34:43.818Z,2596.00
2019-03-19T06:35:43.822Z,2636.00
2019-03-19T06:36:43.827Z,2664.00
2019-03-19T06:37:43.795Z,2688.00
2019-03-19T06:38:43.776Z,2756.00
2019-03-19T06:39:43.772Z,2820.00
2019-03-19T06:40:43.792Z,2884.00
2019-03-19T06:41:43.752Z,2944.00
2019-03-19T06:42:43.746Z,3004.00
2019-03-19T06:43:43.730Z,3072.00
2019-03-19T06:44:43.755Z,3112.00
2019-03-19T06:45:43.713Z,3108.00
2019-03-19T06:46:43.689Z,3144.00
2019-03-19T06:47:43.686Z,3188.00
2019-03-19T06:48:43.666Z,3244.00
2019-03-19T06:49:43.655Z,3288.00
2019-03-19T06:50:45.518Z,3316.00
2019-03-19T06:51:43.656Z,3364.00
2019-03-19T06:52:43.633Z,3392.00
2019-03-19T06:53:43.616Z,3432.00
2019-03-19T06:54:43.605Z,3496.00
2019-03-19T06:55:43.590Z,3540.00
2019-03-19T06:56:43.587Z,3596.00
2019-03-19T06:57:43.571Z,3652.00
2019-03-19T06:58:43.577Z,3712.00
2019-03-19T06:59:43.548Z,3764.00
2019-03-19T07:00:43.541Z,3792.00
2019-03-19T07:01:43.530Z,3840.00
2019-03-19T07:02:43.533Z,3896.00
2019-03-19T07:03:43.529Z,3936.00
2019-03-19T07:04:43.506Z,4008.00
2019-03-19T07:05:43.485Z,4100.00
2019-03-19T07:06:43.553Z,4168.00
2019-03-19T07:07:43.469Z,4196.00
2019-03-19T07:08:43.464Z,4256.00
2019-03-19T07:09:43.443Z,4336.00
2019-03-19T07:10:43.432Z,4400.00
2019-03-19T07:11:43.426Z,4408.00
2019-03-19T07:12:43.438Z,4420.00
2019-03-19T07:13:43.428Z,4452.00
2019-03-19T07:14:43.391Z,4504.00
2019-03-19T07:15:43.388Z,4564.00
2019-03-19T07:16:43.378Z,4564.00
2019-03-19T07:17:43.360Z,4544.00
2019-03-19T07:18:43.347Z,4528.00
2019-03-19T07:19:43.402Z,4616.00
2019-03-19T07:20:43.354Z,4724.00
2019-03-19T07:21:43.420Z,4808.00
2019-03-19T07:22:43.302Z,4828.00
2019-03-19T07:23:43.291Z,4848.00
2019-03-19T07:24:43.285Z,4892.00
2019-03-19T07:25:43.282Z,4912.00
2019-03-19T07:26:43.370Z,4960.00
2019-03-19T07:27:43.250Z,5000.00
2019-03-19T07:28:43.267Z,5028.00
2019-03-19T07:29:43.233Z,5088.00
2019-03-19T07:30:43.219Z,4784.00
2019-03-19T07:31:43.229Z,4840.00
2019-03-19T07:32:43.214Z,4904.00
2019-03-19T07:33:43.200Z,4984.00
2019-03-19T07:34:43.204Z,5064.00
2019-03-19T07:35:43.167Z,5128.00
2019-03-19T07:36:43.169Z,5284.00
2019-03-19T07:37:43.143Z,5372.00
2019-03-19T07:38:43.135Z,5324.00
2019-03-19T07:39:43.127Z,5492.00
2019-03-19T07:40:43.119Z,5480.00
2019-03-19T07:41:43.110Z,5528.00
2019-03-19T07:42:43.094Z,5528.00
2019-03-19T07:43:43.128Z,5572.00
2019-03-19T07:44:43.092Z,5572.00
2019-03-19T07:45:43.079Z,5764.00
2019-03-19T07:46:45.736Z,5964.00
2019-03-19T07:47:43.067Z,5996.00
2019-03-19T07:48:43.029Z,5716.00
2019-03-19T07:49:43.022Z,5844.00
2019-03-19T07:50:43.026Z,6072.00
2019-03-19T07:51:43.004Z,6192.00
2019-03-19T07:52:42.981Z,6440.00
2019-03-19T07:53:42.975Z,6536.00
2019-03-19T07:54:42.961Z,6468.00
2019-03-19T07:55:42.952Z,6712.00
2019-03-19T07:56:42.949Z,6824.00
2019-03-19T07:57:42.928Z,7048.00
2019-03-19T07:58:45.535Z,7256.00
2019-03-19T07:59:42.911Z,7380.00
2019-03-19T08:00:42.902Z,7524.00
2019-03-19T08:01:42.903Z,7720.00
2019-03-19T08:02:42.880Z,8160.00
2019-03-19T08:03:42.865Z,8376.00
2019-03-19T08:04:42.861Z,8628.00
2019-03-19T08:05:42.851Z,9004.00
2019-03-19T08:06:42.854Z,9052.00
2019-03-19T08:07:42.885Z,9860.00
2019-03-19T08:08:42.816Z,10224.00
2019-03-19T08:09:42.808Z,10588.00
2019-03-19T08:10:42.810Z,10688.00
2019-03-19T08:11:42.792Z,11300.00
2019-03-19T08:12:42.834Z,11796.00
2019-03-19T08:13:42.760Z,12724.00
2019-03-19T08:14:42.748Z,13036.00
2019-03-19T08:15:42.757Z,13232.00
2019-03-19T08:16:42.743Z,13448.00
2019-03-19T08:17:43.215Z,14560.00
2019-03-19T08:18:42.734Z,12224.00
2019-03-19T08:19:42.697Z,20448.00
2019-03-19T08:20:42.687Z,9852.00
2019-03-19T08:21:42.694Z,50112.00
2019-03-19T08:22:42.674Z,10792.00
2019-03-19T08:23:42.654Z,7592.00
2019-03-19T08:24:42.644Z,50176.00
2019-03-19T08:25:42.630Z,52384.00
2019-03-19T08:26:42.625Z,48256.00
2019-03-19T08:27:42.642Z,49728.00
2019-03-19T08:28:42.611Z,52672.00
2019-03-19T08:29:42.680Z,51616.00
2019-03-19T08:30:42.725Z,51936.00
2019-03-19T08:31:42.636Z,34912.00
2019-03-19T08:32:42.585Z,52896.00
2019-03-19T08:33:42.544Z,50784.00
2019-03-19T08:34:42.582Z,50720.00
2019-03-19T08:35:42.534Z,49760.00
2019-03-19T08:36:42.518Z,53344.00
2019-03-19T08:37:42.516Z,52704.00
2019-03-19T08:38:42.492Z,49760.00
2019-03-19T08:39:42.480Z,47872.00
2019-03-19T08:40:42.475Z,47872.00
2019-03-19T08:41:42.464Z,51392.00
2019-03-19T08:42:42.473Z,53856.00
2019-03-19T08:43:42.447Z,52128.00
2019-03-19T08:44:42.457Z,40224.00
2019-03-19T08:45:42.459Z,24960.00
2019-03-19T08:46:42.512Z,11836.00
2019-03-19T08:47:42.404Z,12272.00
2019-03-19T08:48:42.390Z,12788.00
2019-03-19T08:49:42.484Z,17888.00
2019-03-19T08:50:42.364Z,17920.00
2019-03-19T08:51:42.358Z,19200.00
2019-03-19T08:52:42.350Z,20032.00
2019-03-19T08:53:42.331Z,19552.00
2019-03-19T08:54:42.317Z,31968.00
2019-03-19T08:55:42.308Z,43936.00
2019-03-19T08:56:42.346Z,35296.00
2019-03-19T08:57:42.309Z,31840.00
2019-03-19T08:58:42.274Z,41760.00
2019-03-19T08:59:42.269Z,30144.00
2019-03-19T09:00:42.255Z,24544.00
2019-03-19T09:01:42.251Z,13960.00
2019-03-19T09:02:42.246Z,13424.00
2019-03-19T09:03:42.233Z,16140.00
2019-03-19T09:04:42.213Z,16100.00
2019-03-19T09:05:42.202Z,27136.00
2019-03-19T09:06:42.195Z,32608.00
2019-03-19T09:07:42.182Z,30848.00
2019-03-19T09:08:42.177Z,34880.00
2019-03-19T09:09:42.161Z,33280.00
2019-03-19T09:10:42.153Z,31968.00
2019-03-19T09:11:42.155Z,35904.00
2019-03-19T09:12:42.135Z,34080.00
2019-03-19T09:13:42.130Z,23392.00
2019-03-19T09:14:42.113Z,17376.00
2019-03-19T09:15:42.546Z,17472.00
2019-03-19T09:16:42.084Z,18208.00
2019-03-19T09:17:42.078Z,19040.00
2019-03-19T09:18:42.078Z,20096.00
2019-03-19T09:19:42.057Z,23488.00
2019-03-19T09:20:42.045Z,14852.00
2019-03-19T09:21:42.031Z,17248.00
2019-03-19T09:22:42.022Z,18496.00
2019-03-19T09:23:42.013Z,20352.00
2019-03-19T09:24:42.004Z,28032.00
2019-03-19T09:25:41.993Z,21888.00
2019-03-19T09:26:41.985Z,18240.00
2019-03-19T09:27:41.966Z,17888.00
2019-03-19T09:28:41.961Z,15600.00
2019-03-19T09:29:41.954Z,14736.00
2019-03-19T09:30:41.934Z,14308.00
2019-03-19T09:31:41.955Z,14604.00
2019-03-19T09:32:41.914Z,12852.00
2019-03-19T09:33:41.955Z,14604.00
2019-03-19T09:34:41.892Z,13492.00
2019-03-19T09:35:41.881Z,13404.00
2019-03-19T09:36:41.881Z,12980.00
2019-03-19T09:37:44.771Z,12824.00
2019-03-19T09:38:42.871Z,13164.00
2019-03-19T09:39:41.845Z,13140.00
2019-03-19T09:40:41.833Z,13272.00
2019-03-19T09:41:41.828Z,14216.00
2019-03-19T09:42:41.822Z,41376.00
2019-03-19T09:43:41.815Z,15496.00
2019-03-19T09:44:41.789Z,14396.00
2019-03-19T09:45:41.778Z,12952.00
2019-03-19T09:46:41.774Z,11824.00
2019-03-19T09:47:41.759Z,10204.00
2019-03-19T09:48:41.761Z,9264.00
2019-03-19T09:49:41.738Z,8632.00
2019-03-19T09:50:41.726Z,8008.00
2019-03-19T09:51:41.718Z,7600.00
2019-03-19T09:52:41.712Z,7268.00
2019-03-19T09:53:41.704Z,6992.00
2019-03-19T09:54:41.687Z,6784.00
2019-03-19T09:55:41.685Z,6500.00
2019-03-19T09:56:41.676Z,6232.00
2019-03-19T09:57:41.650Z,5880.00
2019-03-19T09:58:41.668Z,5424.00
2019-03-19T09:59:43.602Z,4968.00
2019-03-19T10:00:41.625Z,4516.00
2019-03-19T10:01:41.605Z,4140.00
2019-03-19T10:02:41.596Z,3868.00
2019-03-19T10:03:41.629Z,3644.00
2019-03-19T10:04:41.605Z,3556.00
2019-03-19T10:05:41.577Z,3440.00
2019-03-19T10:06:41.557Z,3432.00
2019-03-19T10:07:41.541Z,3688.00
2019-03-19T10:08:41.534Z,3856.00
2019-03-19T10:09:41.533Z,4008.00
2019-03-19T10:10:41.613Z,4156.00
2019-03-19T10:11:41.501Z,4204.00
2019-03-19T10:12:41.487Z,4300.00
2019-03-19T10:13:41.527Z,4304.00
2019-03-19T10:14:41.477Z,4232.00
2019-03-19T10:15:41.455Z,4172.00
2019-03-19T10:16:41.450Z,4100.00
2019-03-19T10:17:41.434Z,4080.00
2019-03-19T10:18:41.458Z,4008.00
2019-03-19T10:19:41.425Z,3992.00
2019-03-19T10:20:41.430Z,4168.00
2019-03-19T10:21:41.397Z,4248.00
2019-03-19T10:22:41.391Z,4220.00
2019-03-19T10:23:41.369Z,4280.00
2019-03-19T10:24:41.364Z,4288.00
2019-03-19T10:25:41.384Z,4228.00
2019-03-19T10:26:41.338Z,4156.00
2019-03-19T10:27:41.361Z,3992.00
2019-03-19T10:28:41.319Z,3920.00
2019-03-19T10:29:41.323Z,3996.00
2019-03-19T10:30:41.292Z,4264.00
2019-03-19T10:31:41.292Z,4492.00
2019-03-19T10:32:41.284Z,4648.00
2019-03-19T10:33:41.261Z,4716.00
2019-03-19T10:34:41.259Z,4792.00
2019-03-19T10:35:41.238Z,4816.00
2019-03-19T10:36:41.248Z,4968.00
2019-03-19T10:37:41.218Z,5232.00
2019-03-19T10:38:41.213Z,5476.00
2019-03-19T10:39:41.206Z,5800.00
2019-03-19T10:40:41.373Z,6172.00
2019-03-19T10:41:41.203Z,6720.00
2019-03-19T10:42:41.224Z,7684.00
2019-03-19T10:43:41.187Z,8900.00
2019-03-19T10:44:41.176Z,10324.00
2019-03-19T10:45:41.142Z,11380.00
2019-03-19T10:46:41.130Z,12112.00
2019-03-19T10:47:41.107Z,13204.00
2019-03-19T10:48:41.108Z,12956.00
2019-03-19T10:49:41.085Z,14228.00
2019-03-19T10:50:41.084Z,17792.00
2019-03-19T10:51:41.062Z,31104.00
2019-03-19T10:52:41.050Z,29184.00
2019-03-19T10:53:41.043Z,28256.00
2019-03-19T10:54:41.127Z,27808.00
2019-03-19T10:55:41.291Z,19456.00
2019-03-19T10:56:41.008Z,26016.00
2019-03-19T10:57:41.006Z,14828.00
2019-03-19T10:58:40.988Z,12064.00
2019-03-19T10:59:48.810Z,11176.00
2019-03-19T11:00:41.969Z,10116.00
2019-03-19T11:01:40.954Z,9080.00
2019-03-19T11:02:40.986Z,8196.00
2019-03-19T11:03:40.935Z,7400.00
2019-03-19T11:04:40.942Z,6768.00
2019-03-19T11:05:40.912Z,6280.00
2019-03-19T11:06:40.900Z,6176.00
2019-03-19T11:07:40.898Z,6532.00
2019-03-19T11:08:40.885Z,6464.00
2019-03-19T11:09:40.893Z,6016.00
2019-03-19T11:10:40.860Z,5784.00
2019-03-19T11:11:40.850Z,5460.00
2019-03-19T11:12:40.838Z,5348.00
2019-03-19T11:13:40.827Z,5268.00
2019-03-19T11:14:40.814Z,5152.00
2019-03-19T11:15:40.811Z,5116.00
2019-03-19T11:16:40.792Z,4644.00
2019-03-19T11:17:40.791Z,4264.00
2019-03-19T11:18:40.773Z,4032.00
2019-03-19T11:19:40.825Z,3900.00
2019-03-19T11:20:40.755Z,3856.00
2019-03-19T11:21:40.744Z,3848.00
2019-03-19T11:22:40.747Z,3832.00
2019-03-19T11:23:40.727Z,3832.00
2019-03-19T11:24:40.768Z,3832.00
2019-03-19T11:25:40.704Z,3924.00
2019-03-19T11:26:40.688Z,4064.00
2019-03-19T11:27:40.715Z,4248.00
2019-03-19T11:28:40.671Z,4684.00
2019-03-19T11:29:40.655Z,5280.00
2019-03-19T11:30:40.665Z,5596.00
2019-03-19T11:31:40.690Z,5792.00
2019-03-19T11:32:40.711Z,7708.00
2019-03-19T11:33:40.622Z,6500.00
2019-03-19T11:34:40.601Z,6004.00
2019-03-19T11:35:40.604Z,6108.00
2019-03-19T11:36:40.589Z,6464.00
2019-03-19T11:37:40.576Z,7116.00
2019-03-19T11:38:40.568Z,7776.00
2019-03-19T11:39:40.565Z,8236.00
2019-03-19T11:40:40.786Z,8504.00
2019-03-19T11:41:40.524Z,8676.00
2019-03-19T11:42:40.522Z,9200.00
2019-03-19T11:43:40.510Z,10212.00
2019-03-19T11:44:42.835Z,12044.00
2019-03-19T11:45:40.493Z,13592.00
2019-03-19T11:46:40.601Z,13232.00
2019-03-19T11:47:40.473Z,13848.00
2019-03-19T11:48:40.449Z,13408.00
2019-03-19T11:49:40.444Z,13252.00
2019-03-19T11:50:40.466Z,13328.00
2019-03-19T11:51:40.487Z,14608.00
2019-03-19T11:52:40.423Z,19392.00
2019-03-19T11:53:40.399Z,42368.00
2019-03-19T11:54:40.391Z,35072.00
2019-03-19T11:55:40.397Z,53312.00
2019-03-19T11:56:40.382Z,17408.00
2019-03-19T11:57:40.355Z,13564.00
2019-03-19T11:58:40.357Z,11888.00
2019-03-19T11:59:40.364Z,10904.00
2019-03-19T12:00:40.371Z,9524.00
2019-03-19T12:01:40.384Z,8776.00
2019-03-19T12:02:40.353Z,8440.00
2019-03-19T12:03:40.289Z,8172.00
2019-03-19T12:04:40.291Z,7916.00
2019-03-19T12:05:40.280Z,7972.00
2019-03-19T12:06:40.272Z,7816.00
2019-03-19T12:07:40.248Z,7504.00
2019-03-19T12:08:40.382Z,7280.00
2019-03-19T12:09:40.274Z,7112.00
2019-03-19T12:10:40.221Z,7160.00
2019-03-19T12:11:40.204Z,7232.00
2019-03-19T12:12:40.194Z,6984.00
2019-03-19T12:13:40.187Z,6480.00
2019-03-19T12:14:40.175Z,6008.00
2019-03-19T12:15:40.183Z,5808.00
2019-03-19T12:16:40.152Z,5504.00
2019-03-19T12:17:40.140Z,5320.00
2019-03-19T12:18:40.141Z,5268.00
2019-03-19T12:19:40.115Z,5288.00
2019-03-19T12:20:40.115Z,5424.00
2019-03-19T12:21:40.096Z,5908.00
2019-03-19T12:22:40.084Z,6104.00
2019-03-19T12:23:40.085Z,9588.00
2019-03-19T12:24:40.078Z,10388.00
2019-03-19T12:25:40.096Z,12928.00
2019-03-19T12:26:40.063Z,9288.00
2019-03-19T12:27:40.034Z,9700.00
2019-03-19T12:28:40.078Z,15712.00
2019-03-19T12:29:40.009Z,8592.00
2019-03-19T12:30:40.041Z,8124.00
2019-03-19T12:31:39.988Z,7804.00